Pennington, Virginia
Current Conditions -  °F | °C
As of 11:55 PM on Wednesday 22 Oct 2014 (Local Time) from K0VG Reporting Station
Overcast Overcast  
Wind Chill: 48°   Ceiling: 2900
Heat Index: 48°   Visibility: 10mi
Dew Point: 39°   Wind: 0mph
Humidity: 71%   Direction: NA
Pressure: 30.23"   Gusts: NA
Location:  36.7557°N, 83.038°W
Report Text: K0VG 230355Z AUTO 00000KT 10SM OVC029 09/04 A3023 RMK AO2
Loading
Personal Weather Stations






























Interactive Weather Map
Tropical Storm Tracking
New forecast layout! Learn more

10-Day Weather Forecast

Advertisements
Track Severe Weather on mobile